Time;durP1;ratioP1;P1;durP2;ratioP2;P2;SDS_P1;SDS_P2;PMS_P1;PMS_P2;Temp;Humidity;BMP_temperature;BMP_pressure;BME280_temperature;BME280_humidity;BME280_pressure;Samples;Min_cycle;Max_cycle;Signal;HPM_P1;HPM_P2
2022/11/14 00:00:51;;;;;;;33.13;21.03;;;;;;;3.02;100.00;98569.06;6229058;28;20248;-67
2022/11/14 00:04:12;;;;;;;31.40;20.80;;;;;;;2.93;100.00;98565.88;6231735;28;20243;-67
2022/11/14 00:07:34;;;;;;;35.57;21.87;;;;;;;2.84;100.00;98558.38;6232093;28;20232;-67
2022/11/14 00:10:54;;;;;;;33.50;20.90;;;;;;;2.79;100.00;98560.31;6228819;28;20236;-68
2022/11/14 00:14:15;;;;;;;37.73;22.93;;;;;;;2.71;100.00;98559.72;6229890;28;20322;-68
2022/11/14 00:17:36;;;;;;;36.43;21.23;;;;;;;2.76;100.00;98564.78;6231784;28;20268;-67
2022/11/14 00:20:57;;;;;;;37.03;19.90;;;;;;;2.69;100.00;98563.28;6229241;28;20227;-67
2022/11/14 00:24:18;;;;;;;38.33;22.93;;;;;;;2.63;100.00;98571.31;6228581;28;20231;-67
2022/11/14 00:27:39;;;;;;;33.00;20.63;;;;;;;2.50;100.00;98568.25;6231633;28;20755;-67
2022/11/14 00:31:00;;;;;;;31.43;21.23;;;;;;;2.48;100.00;98564.88;6229398;28;20284;-67
2022/11/14 00:34:21;;;;;;;37.03;22.33;;;;;;;2.41;100.00;98556.41;6229435;28;20229;-67
2022/11/14 00:37:41;;;;;;;37.80;21.13;;;;;;;2.41;100.00;98561.59;6231164;28;20235;-67
2022/11/14 00:41:02;;;;;;;32.17;21.23;;;;;;;2.40;100.00;98559.91;6227092;28;20255;-68
2022/11/14 00:44:23;;;;;;;33.67;21.57;;;;;;;2.37;100.00;98559.16;6229599;28;20215;-67
2022/11/14 00:47:44;;;;;;;36.27;22.07;;;;;;;2.28;100.00;98560.31;6231094;28;20232;-67
2022/11/14 00:51:04;;;;;;;33.50;20.07;;;;;;;2.21;100.00;98570.06;6224178;28;20521;-67
2022/11/14 00:54:25;;;;;;;32.67;21.40;;;;;;;2.14;100.00;98560.75;6226999;28;20220;-67
2022/11/14 00:57:47;;;;;;;32.23;21.00;;;;;;;2.04;100.00;98567.16;6229326;28;20232;-67
2022/11/14 01:01:07;;;;;;;32.77;22.07;;;;;;;2.01;100.00;98556.84;6237359;28;20239;-67
2022/11/14 01:04:28;;;;;;;37.83;23.27;;;;;;;1.92;100.00;98551.09;6253859;28;20231;-67
2022/11/14 01:07:49;;;;;;;40.13;23.97;;;;;;;1.85;100.00;98550.44;6253442;28;20223;-67
2022/11/14 01:11:15;;;;;;;33.60;21.43;;;;;;;1.80;100.00;98539.31;6254852;28;20227;-68
2022/11/14 01:14:36;;;;;;;36.03;22.73;;;;;;;1.73;100.00;98538.66;6253281;28;20238;-67
2022/11/14 01:17:56;;;;;;;37.43;23.83;;;;;;;1.65;100.00;98527.66;6253801;28;20298;-67
2022/11/14 01:21:17;;;;;;;38.73;23.27;;;;;;;1.61;100.00;98523.41;6250828;28;20282;-67
2022/11/14 01:24:37;;;;;;;43.17;25.77;;;;;;;1.54;100.00;98527.13;6253867;28;20701;-68
2022/11/14 01:27:59;;;;;;;53.10;32.03;;;;;;;1.50;100.00;98517.69;6253694;28;20278;-67
2022/11/14 01:31:22;;;;;;;50.80;29.17;;;;;;;1.50;100.00;98514.28;6252649;28;20714;-67
2022/11/14 01:34:43;;;;;;;35.20;24.17;;;;;;;1.43;100.00;98517.03;6251830;28;20276;-67
2022/11/14 01:38:05;;;;;;;45.63;28.67;;;;;;;1.38;100.00;98520.69;6244226;28;20330;-68
2022/11/14 01:41:25;;;;;;;40.03;24.30;;;;;;;1.39;100.00;98509.41;6252357;28;20224;-68
2022/11/14 01:44:54;;;;;;;39.40;25.10;;;;;;;1.34;100.00;98508.66;6252169;28;20236;-68
2022/11/14 01:48:43;;;;;;;38.67;23.40;;;;;;;1.29;100.00;98506.22;6249856;28;20241;-67
2022/11/14 01:52:19;;;;;;;34.77;22.23;;;;;;;1.22;100.00;98498.63;6253104;28;20710;-68
2022/11/14 01:55:40;;;;;;;37.90;22.93;;;;;;;1.17;100.00;98501.38;6252901;28;20233;-68
2022/11/14 01:59:14;;;;;;;40.10;22.33;;;;;;;1.24;100.00;98504.63;6252225;28;20235;-67
2022/11/14 02:02:37;;;;;;;38.47;23.47;;;;;;;1.20;100.00;98503.03;6250210;28;20237;-67
2022/11/14 02:06:00;;;;;;;41.33;23.80;;;;;;;1.19;100.00;98507.38;6257377;28;20221;-67
2022/11/14 02:09:21;;;;;;;42.10;23.97;;;;;;;1.16;100.00;98506.63;6256945;28;20680;-67
2022/11/14 02:12:43;;;;;;;37.80;22.17;;;;;;;1.16;100.00;98504.88;6257377;28;20238;-67
2022/11/14 02:16:05;;;;;;;40.30;22.83;;;;;;;1.14;100.00;98491.06;6258917;28;20719;-67
2022/11/14 02:19:43;;;;;;;40.27;23.20;;;;;;;1.16;100.00;98499.66;6255771;28;20255;-67
2022/11/14 02:23:04;;;;;;;38.23;23.17;;;;;;;1.19;100.00;98498.75;6253338;28;20684;-67
2022/11/14 02:26:25;;;;;;;35.97;22.50;;;;;;;1.19;100.00;98502.19;6257212;28;20236;-67
2022/11/14 02:29:45;;;;;;;40.37;23.80;;;;;;;1.23;100.00;98495.97;6259544;28;20235;-66
2022/11/14 02:33:06;;;;;;;38.17;22.87;;;;;;;1.24;100.00;98495.09;6255406;28;20231;-67
2022/11/14 02:36:30;;;;;;;43.03;25.13;;;;;;;1.27;100.00;98492.41;6256941;28;20245;-67
2022/11/14 02:39:51;;;;;;;49.53;26.53;;;;;;;1.31;100.00;98483.59;6258135;28;20224;-67
2022/11/14 02:43:11;;;;;;;46.53;30.10;;;;;;;1.38;100.00;98489.47;6251833;28;20239;-68
2022/11/14 02:46:32;;;;;;;69.33;39.93;;;;;;;1.42;100.00;98481.53;6256627;28;20236;-67
2022/11/14 02:49:53;;;;;;;115.73;57.13;;;;;;;1.50;100.00;98481.28;6258267;28;20242;-68
2022/11/14 02:53:13;;;;;;;114.27;59.13;;;;;;;1.56;100.00;98477.66;6254953;28;20264;-67
2022/11/14 02:56:34;;;;;;;140.10;69.73;;;;;;;1.60;100.00;98471.47;6255479;28;20235;-67
2022/11/14 02:59:55;;;;;;;154.53;74.77;;;;;;;1.63;100.00;98479.16;6256638;28;20281;-68
2022/11/14 03:03:15;;;;;;;157.63;77.40;;;;;;;1.64;100.00;98466.09;6252607;28;20704;-67
2022/11/14 03:06:36;;;;;;;210.03;95.50;;;;;;;1.66;100.00;98468.66;6255731;28;20306;-68
2022/11/14 03:09:56;;;;;;;186.00;84.83;;;;;;;1.66;100.00;98468.66;6241223;28;20715;-67
2022/11/14 03:13:17;;;;;;;151.13;73.77;;;;;;;1.69;100.00;98473.78;6257673;28;20238;-68
2022/11/14 03:16:38;;;;;;;123.13;60.27;;;;;;;1.69;100.00;98465.97;6253339;28;20775;-68
2022/11/14 03:19:58;;;;;;;96.43;49.53;;;;;;;1.67;100.00;98468.63;6256497;28;20723;-67
2022/11/14 03:23:19;;;;;;;72.03;37.97;;;;;;;1.70;100.00;98470.25;6255705;28;20234;-67
2022/11/14 03:26:40;;;;;;;61.80;35.23;;;;;;;1.71;100.00;98471.94;6254295;28;20234;-67
2022/11/14 03:30:00;;;;;;;55.80;33.43;;;;;;;1.73;100.00;98468.41;6255601;28;20236;-68
2022/11/14 03:33:21;;;;;;;51.53;30.77;;;;;;;1.71;100.00;98465.00;6242560;28;20698;-67
2022/11/14 03:36:41;;;;;;;46.27;27.07;;;;;;;1.64;100.00;98462.66;6238942;28;20453;-67
2022/11/14 03:40:03;;;;;;;47.20;27.60;;;;;;;1.61;100.00;98462.72;6255506;28;20246;-67
2022/11/14 03:43:24;;;;;;;46.57;26.13;;;;;;;1.58;100.00;98470.66;6254151;28;20716;-68
2022/11/14 03:46:44;;;;;;;43.00;25.93;;;;;;;1.61;100.00;98474.00;6258367;28;20241;-66
2022/11/14 03:50:05;;;;;;;41.13;23.93;;;;;;;1.61;100.00;98466.19;6254354;28;20722;-68
2022/11/14 03:53:27;;;;;;;42.10;24.77;;;;;;;1.61;100.00;98462.72;6252306;28;20243;-68
2022/11/14 03:56:47;;;;;;;47.43;25.40;;;;;;;1.62;100.00;98460.09;6241676;28;20237;-68
2022/11/14 04:00:09;;;;;;;37.73;23.00;;;;;;;1.63;100.00;98463.53;6257502;28;20264;-68
2022/11/14 04:03:29;;;;;;;43.00;25.60;;;;;;;1.64;100.00;98460.03;6253991;28;20692;-68
2022/11/14 04:06:50;;;;;;;43.97;24.80;;;;;;;1.68;100.00;98452.09;6256560;28;20320;-67
2022/11/14 04:10:11;;;;;;;46.67;25.80;;;;;;;1.71;100.00;98449.38;6253956;28;20245;-68
2022/11/14 04:13:31;;;;;;;43.37;26.23;;;;;;;1.75;100.00;98447.53;6254693;28;20511;-68
2022/11/14 04:16:52;;;;;;;43.73;25.73;;;;;;;1.80;100.00;98437.81;6256307;28;20244;-69
2022/11/14 04:20:14;;;;;;;51.07;28.83;;;;;;;1.80;100.00;98441.28;6254345;28;20241;-67
2022/11/14 04:23:34;;;;;;;40.50;23.27;;;;;;;1.81;100.00;98439.53;6254855;28;20591;-67
2022/11/14 04:26:55;;;;;;;48.40;27.37;;;;;;;1.85;100.00;98442.00;6255609;28;20273;-68
2022/11/14 04:30:15;;;;;;;49.30;27.20;;;;;;;1.91;100.00;98427.06;6252347;28;20220;-67
2022/11/14 04:33:36;;;;;;;67.20;33.37;;;;;;;1.96;100.00;98418.22;6254468;28;20253;-68
2022/11/14 04:36:57;;;;;;;67.53;36.47;;;;;;;2.01;100.00;98415.44;6256077;28;20269;-67
2022/11/14 04:40:18;;;;;;;62.40;35.63;;;;;;;2.05;100.00;98412.69;6251349;28;20237;-67
2022/11/14 04:43:39;;;;;;;68.40;36.13;;;;;;;2.13;100.00;98421.06;6253998;28;20239;-67
2022/11/14 04:46:59;;;;;;;90.87;48.67;;;;;;;2.17;100.00;98422.69;6254831;28;20263;-68
2022/11/14 04:50:20;;;;;;;94.50;50.10;;;;;;;2.22;100.00;98417.28;6249269;28;20293;-67
2022/11/14 04:53:41;;;;;;;132.13;60.93;;;;;;;2.27;100.00;98418.00;6252391;28;20708;-67
2022/11/14 04:57:01;;;;;;;87.70;47.00;;;;;;;2.29;100.00;98423.16;6254725;28;20234;-68
2022/11/14 05:00:23;;;;;;;81.07;40.73;;;;;;;2.31;100.00;98410.91;6251099;28;20261;-68
2022/11/14 05:03:44;;;;;;;62.77;34.73;;;;;;;2.33;100.00;98412.56;6253090;28;20231;-68
2022/11/14 05:07:05;;;;;;;65.53;33.87;;;;;;;2.33;100.00;98407.34;6253627;28;20255;-67
2022/11/14 05:10:26;;;;;;;78.73;35.60;;;;;;;2.33;100.00;98402.16;6251305;28;20232;-67
2022/11/14 05:13:46;;;;;;;58.17;31.30;;;;;;;2.30;100.00;98398.78;6251954;28;20388;-67
2022/11/14 05:17:07;;;;;;;59.63;31.77;;;;;;;2.27;100.00;98404.13;6253003;28;20732;-68
2022/11/14 05:20:27;;;;;;;53.10;29.70;;;;;;;2.27;100.00;98411.94;6255884;28;20587;-68
2022/11/14 05:23:48;;;;;;;58.80;31.50;;;;;;;2.26;100.00;98403.28;6251328;28;20721;-68
2022/11/14 05:27:08;;;;;;;58.70;31.97;;;;;;;2.24;100.00;98412.88;6253178;28;20217;-68
2022/11/14 05:30:30;;;;;;;58.83;32.67;;;;;;;2.28;100.00;98421.47;6253816;28;20626;-68
2022/11/14 05:33:51;;;;;;;60.00;31.90;;;;;;;2.31;100.00;98416.13;6251761;28;20317;-68
2022/11/14 05:37:12;;;;;;;47.60;28.10;;;;;;;2.33;100.00;98412.56;6252704;28;20310;-67
2022/11/14 05:40:32;;;;;;;60.97;32.40;;;;;;;2.35;100.00;98412.50;6253932;28;20227;-67
2022/11/14 05:43:53;;;;;;;66.63;33.40;;;;;;;2.34;100.00;98409.06;6251202;28;20262;-67
2022/11/14 05:47:13;;;;;;;59.33;31.60;;;;;;;2.36;100.00;98417.66;6253884;28;20232;-67
2022/11/14 05:50:34;;;;;;;53.40;30.83;;;;;;;2.38;100.00;98423.69;6239419;28;20328;-67
2022/11/14 05:53:54;;;;;;;57.23;29.87;;;;;;;2.40;100.00;98415.78;6248702;28;20230;-67
2022/11/14 05:57:15;;;;;;;56.47;30.97;;;;;;;2.36;100.00;98402.03;6236646;28;20699;-67
2022/11/14 06:00:35;;;;;;;64.67;32.50;;;;;;;2.34;100.00;98403.84;6254613;28;20226;-68
2022/11/14 06:04:08;;;;;;;66.43;32.70;;;;;;;2.30;100.00;98417.00;6252953;28;20230;-67
2022/11/14 06:07:28;;;;;;;52.47;29.83;;;;;;;2.28;100.00;98417.09;6253569;28;20717;-67
2022/11/14 06:10:49;;;;;;;50.73;28.30;;;;;;;2.31;100.00;98413.50;6254245;28;20265;-66
2022/11/14 06:14:09;;;;;;;78.37;35.23;;;;;;;2.31;100.00;98418.72;6253881;28;20237;-67
2022/11/14 06:17:30;;;;;;;52.97;30.27;;;;;;;2.29;100.00;98418.81;6252757;28;20239;-67
2022/11/14 06:20:51;;;;;;;68.70;33.33;;;;;;;2.30;100.00;98417.88;6252961;28;20231;-67
2022/11/14 06:24:11;;;;;;;51.63;30.37;;;;;;;2.33;100.00;98422.97;6250889;28;20272;-67
2022/11/14 06:27:32;;;;;;;56.50;33.00;;;;;;;2.41;100.00;98428.75;6252309;28;20230;-67
2022/11/14 06:31:00;;;;;;;60.37;35.20;;;;;;;2.46;100.00;98426.00;6238689;28;20231;-67
2022/11/14 06:34:21;;;;;;;62.10;32.70;;;;;;;2.52;100.00;98426.63;6251599;28;20232;-67
2022/11/14 06:37:41;;;;;;;64.50;34.43;;;;;;;2.58;100.00;98422.97;6253858;28;20332;-67
2022/11/14 06:41:08;;;;;;;71.00;33.73;;;;;;;2.66;100.00;98427.88;6234715;28;20223;-68
2022/11/14 06:44:28;;;;;;;63.33;34.77;;;;;;;2.77;100.00;98430.94;6251824;28;20719;-68
2022/11/14 06:47:50;;;;;;;70.23;37.37;;;;;;;2.88;100.00;98426.19;6248939;28;20238;-68
2022/11/14 06:51:12;;;;;;;52.83;31.60;;;;;;;2.98;100.00;98435.38;6253103;28;20703;-67
2022/11/14 06:54:33;;;;;;;59.90;34.63;;;;;;;3.06;100.00;98435.06;6256053;28;20264;-67
2022/11/14 06:57:54;;;;;;;59.93;34.00;;;;;;;3.11;100.00;98428.75;6254473;28;20343;-67
2022/11/14 07:01:21;;;;;;;58.43;34.47;;;;;;;3.17;100.00;98430.28;6246351;28;20232;-67
2022/11/14 07:04:41;;;;;;;58.70;33.60;;;;;;;3.20;100.00;98424.94;6232686;28;20236;-67
2022/11/14 07:08:02;;;;;;;54.73;32.80;;;;;;;3.25;100.00;98430.84;6230345;28;20350;-68
2022/11/14 07:11:26;;;;;;;47.33;28.87;;;;;;;3.30;100.00;98432.34;6230742;28;20261;-67
2022/11/14 07:14:47;;;;;;;52.30;31.20;;;;;;;3.37;100.00;98426.91;6232636;28;20231;-67
2022/11/14 07:18:07;;;;;;;52.27;31.27;;;;;;;3.42;100.00;98438.00;6229255;28;20286;-67
2022/11/14 07:21:30;;;;;;;54.97;33.70;;;;;;;3.46;100.00;98424.78;6231428;28;20224;-67
2022/11/14 07:24:50;;;;;;;71.03;35.37;;;;;;;3.50;100.00;98423.72;6229076;28;20232;-67
2022/11/14 07:28:11;;;;;;;49.13;30.33;;;;;;;3.52;100.00;98418.47;6230682;28;20235;-68
2022/11/14 07:31:31;;;;;;;39.03;27.10;;;;;;;3.52;100.00;98413.25;6231018;28;20238;-67
2022/11/14 07:34:52;;;;;;;58.27;33.10;;;;;;;3.61;100.00;98428.53;6231611;28;20232;-67
2022/11/14 07:38:20;;;;;;;51.40;33.27;;;;;;;3.74;100.00;98421.91;6229942;28;20239;-67
2022/11/14 07:41:40;;;;;;;54.57;33.73;;;;;;;3.86;100.00;98418.78;6230762;28;20232;-67
2022/11/14 07:45:01;;;;;;;51.77;33.07;;;;;;;4.05;100.00;98421.47;6229034;28;20312;-67
2022/11/14 07:48:22;;;;;;;52.23;32.43;;;;;;;4.26;100.00;98423.19;6230066;28;20795;-67
2022/11/14 07:51:43;;;;;;;62.73;37.93;;;;;;;4.42;100.00;98420.75;6230531;28;20229;-68
2022/11/14 07:55:04;;;;;;;58.97;35.47;;;;;;;4.61;100.00;98418.16;6228203;28;20251;-67
2022/11/14 07:58:24;;;;;;;64.37;37.90;;;;;;;4.72;100.00;98414.16;6228449;28;20233;-67
2022/11/14 08:01:45;;;;;;;65.90;36.73;;;;;;;4.88;100.00;98410.84;6227198;28;20703;-68
2022/11/14 08:05:06;;;;;;;55.23;35.47;;;;;;;5.01;100.00;98412.81;6231640;28;20232;-68
2022/11/14 08:08:27;;;;;;;62.37;37.70;;;;;;;5.12;100.00;98413.16;6229344;28;20237;-68
2022/11/14 08:11:48;;;;;;;74.10;39.23;;;;;;;5.22;100.00;98394.41;6229657;28;20236;-67
2022/11/14 08:15:11;;;;;;;91.30;39.50;;;;;;;5.26;100.00;98401.22;6230691;28;20241;-68
2022/11/14 08:18:32;;;;;;;68.57;38.60;;;;;;;5.26;100.00;98404.69;6230666;28;20233;-68
2022/11/14 08:21:52;;;;;;;57.30;35.40;;;;;;;5.27;100.00;98397.69;6230097;28;20339;-68
2022/11/14 08:25:13;;;;;;;59.80;34.40;;;;;;;5.31;100.00;98394.84;6229980;28;20237;-67
2022/11/14 08:28:33;;;;;;;53.97;33.00;;;;;;;5.54;100.00;98397.19;6230552;28;20234;-67
2022/11/14 08:31:54;;;;;;;72.00;38.23;;;;;;;5.78;100.00;98375.97;6229141;28;20232;-67
2022/11/14 08:35:19;;;;;;;59.00;35.23;;;;;;;6.11;100.00;98366.44;6228543;28;20758;-67
2022/11/14 08:38:39;;;;;;;62.70;35.43;;;;;;;6.54;100.00;98369.44;6227406;28;20603;-67
2022/11/14 08:42:00;;;;;;;59.60;34.97;;;;;;;6.94;100.00;98360.28;6226148;28;20274;-68
2022/11/14 08:45:21;;;;;;;52.83;32.97;;;;;;;7.32;100.00;98361.59;6229932;28;20262;-67
2022/11/14 08:48:41;;;;;;;54.67;31.37;;;;;;;7.63;100.00;98355.47;6227334;28;20701;-67
2022/11/14 08:52:02;;;;;;;42.07;28.50;;;;;;;7.98;100.00;98356.06;6228611;28;20319;-67
2022/11/14 08:55:23;;;;;;;40.33;26.97;;;;;;;8.32;100.00;98357.53;6230010;28;20234;-68
2022/11/14 08:58:43;;;;;;;36.63;26.13;;;;;;;8.46;98.39;98357.56;6227306;28;20714;-68
2022/11/14 09:02:04;;;;;;;39.43;24.63;;;;;;;8.47;95.63;98366.28;6227514;28;20291;-67
2022/11/14 09:05:24;;;;;;;35.27;24.33;;;;;;;8.75;94.99;98357.53;6235138;28;20228;-68
2022/11/14 09:08:45;;;;;;;29.00;21.40;;;;;;;8.95;95.04;98356.28;6227750;28;20228;-67
2022/11/14 09:12:05;;;;;;;28.97;21.47;;;;;;;9.14;93.48;98360.31;6227988;28;20714;-68
2022/11/14 09:15:27;;;;;;;28.50;20.40;;;;;;;9.35;92.65;98358.09;6227852;28;20224;-68
2022/11/14 09:18:48;;;;;;;28.60;20.83;;;;;;;9.44;87.13;98360.13;6211390;28;20235;-68
2022/11/14 09:22:08;;;;;;;26.10;19.30;;;;;;;9.62;89.06;98356.28;6227485;28;20235;-68
2022/11/14 09:25:29;;;;;;;27.00;20.30;;;;;;;9.77;86.72;98361.50;6228413;28;20239;-67
2022/11/14 09:28:50;;;;;;;24.17;18.47;;;;;;;9.88;85.95;98343.19;6225847;28;20236;-68
2022/11/14 09:32:10;;;;;;;24.67;17.30;;;;;;;10.03;84.31;98330.75;6227449;28;20255;-68
2022/11/14 09:35:31;;;;;;;23.57;17.37;;;;;;;10.24;83.43;98327.53;6228215;28;20239;-68
2022/11/14 09:38:52;;;;;;;22.83;17.13;;;;;;;10.32;81.84;98324.34;6229142;28;20331;-68
2022/11/14 09:42:38;;;;;;;25.03;18.67;;;;;;;10.43;79.47;98313.91;6224311;28;20271;-67
2022/11/14 09:45:58;;;;;;;22.37;17.60;;;;;;;10.59;80.92;98311.03;6228286;28;20227;-67
2022/11/14 09:49:33;;;;;;;22.33;17.70;;;;;;;10.72;79.69;98306.59;6229637;28;20231;-67
2022/11/14 09:53:01;;;;;;;25.73;17.97;;;;;;;10.71;76.81;98303.09;6233112;28;20226;-66
2022/11/14 09:56:25;;;;;;;21.07;16.60;;;;;;;10.89;78.43;98294.81;6226935;28;20235;-67
2022/11/14 09:59:46;;;;;;;20.37;16.13;;;;;;;10.94;77.48;98285.63;6227907;28;20717;-68
2022/11/14 10:03:43;;;;;;;28.20;18.90;;;;;;;11.51;75.31;98287.59;6227635;28;20233;-68
2022/11/14 10:07:34;;;;;;;23.37;17.63;;;;;;;11.71;74.04;98276.38;6229974;28;20637;-66
2022/11/14 10:11:09;;;;;;;22.47;18.17;;;;;;;11.72;74.63;98277.22;6225071;28;20224;-67
2022/11/14 10:14:32;;;;;;;23.80;17.97;;;;;;;11.59;74.04;98265.84;6227156;28;20687;-67
2022/11/14 10:18:03;;;;;;;22.83;18.07;;;;;;;11.55;74.54;98265.25;6227348;28;20247;-67
2022/11/14 10:21:49;;;;;;;22.83;17.73;;;;;;;11.53;72.97;98267.16;6227479;28;20235;-66
2022/11/14 10:25:23;;;;;;;21.20;16.70;;;;;;;11.50;74.09;98254.19;6228495;28;20239;-68
2022/11/14 10:28:53;;;;;;;21.00;16.43;;;;;;;11.61;73.84;98250.72;6230053;28;20389;-67
2022/11/14 10:32:31;;;;;;;21.47;16.37;;;;;;;11.52;73.85;98248.78;6232407;28;20231;-68
2022/11/14 10:36:00;;;;;;;22.47;18.07;;;;;;;11.57;74.15;98244.00;6232820;28;20231;-68
2022/11/14 10:39:30;;;;;;;21.20;16.83;;;;;;;11.54;73.72;98242.44;6235291;28;20262;-67
2022/11/14 10:43:10;;;;;;;20.73;15.97;;;;;;;11.62;73.61;98240.03;6231211;28;20236;-67
2022/11/14 10:46:40;;;;;;;20.47;16.27;;;;;;;11.52;73.40;98232.91;6231703;28;20230;-67
2022/11/14 10:50:17;;;;;;;21.93;16.30;;;;;;;11.30;73.11;98213.38;6231013;28;20232;-66
2022/11/14 10:53:44;;;;;;;22.07;17.40;;;;;;;11.29;74.29;98216.97;6233501;28;20224;-68
2022/11/14 10:57:15;;;;;;;20.63;17.10;;;;;;;11.35;74.14;98218.34;6231933;28;20239;-67
2022/11/14 11:00:36;;;;;;;19.70;16.70;;;;;;;11.35;73.91;98208.59;6231377;28;20709;-67
2022/11/14 11:03:56;;;;;;;23.03;17.43;;;;;;;11.33;73.67;98209.69;6232055;28;20946;-67
2022/11/14 11:11:28;;;;;;;21.97;17.10;;;;;;;11.56;72.74;98208.78;6230579;28;20236;-66
2022/11/14 11:15:20;;;;;;;21.37;16.80;;;;;;;11.63;73.11;98196.78;6232125;28;20216;-67
2022/11/14 11:18:40;;;;;;;19.33;16.17;;;;;;;11.74;72.15;98202.09;6197396;28;20231;-67
2022/11/14 11:22:01;;;;;;;22.70;17.37;;;;;;;11.72;71.48;98197.88;6230719;28;20227;-67
2022/11/14 11:25:27;;;;;;;21.37;16.03;;;;;;;11.94;72.08;98194.47;6232577;28;20322;-67
2022/11/14 11:29:10;;;;;;;18.70;15.13;;;;;;;11.95;71.20;98189.06;6230575;28;20715;-67
2022/11/14 11:32:31;;;;;;;22.30;17.63;;;;;;;11.99;71.29;98187.00;6230870;28;20228;-67
2022/11/14 11:36:16;;;;;;;19.53;16.17;;;;;;;12.11;70.19;98173.66;6232015;28;20219;-66
2022/11/14 11:39:51;;;;;;;19.57;17.27;;;;;;;12.19;70.93;98176.53;6231827;28;20224;-67
2022/11/14 11:43:30;;;;;;;20.20;16.27;;;;;;;12.33;70.48;98182.56;6229988;28;20237;-67
2022/11/14 11:47:03;;;;;;;21.87;17.37;;;;;;;12.35;70.44;98173.53;6210369;28;20236;-66
2022/11/14 11:50:23;;;;;;;20.87;16.53;;;;;;;12.49;69.96;98172.41;6198993;28;21566;-66
2022/11/14 11:53:56;;;;;;;20.37;17.27;;;;;;;12.52;69.40;98169.53;6199109;28;20240;-66
2022/11/14 11:57:29;;;;;;;22.10;17.73;;;;;;;12.54;68.90;98170.25;6230413;28;20236;-66
2022/11/14 12:00:56;;;;;;;22.07;16.17;;;;;;;12.50;68.46;98161.72;6228181;28;20236;-67
2022/11/14 12:04:17;;;;;;;22.07;17.97;;;;;;;12.52;68.29;98164.22;6231181;28;20236;-67
2022/11/14 12:07:51;;;;;;;19.30;16.10;;;;;;;12.78;67.83;98160.31;6228518;28;20228;-66
2022/11/14 12:11:18;;;;;;;21.33;17.67;;;;;;;12.75;68.17;98165.03;6229140;28;20459;-67
2022/11/14 12:14:41;;;;;;;22.73;17.50;;;;;;;12.87;67.02;98159.59;6229581;28;20269;-66
2022/11/14 12:18:19;;;;;;;18.20;16.20;;;;;;;12.97;67.44;98150.88;6230928;28;20247;-67
2022/11/14 12:22:19;;;;;;;21.67;17.30;;;;;;;13.16;66.32;98154.56;6230888;28;20232;-67
2022/11/14 12:26:05;;;;;;;18.97;16.37;;;;;;;13.44;66.35;98149.59;6229851;28;20703;-67
2022/11/14 12:30:00;;;;;;;24.03;18.70;;;;;;;13.34;65.24;98146.88;6231087;28;20322;-67
2022/11/14 12:33:27;;;;;;;19.43;16.20;;;;;;;13.70;64.14;98142.06;6228223;28;20284;-67
2022/11/14 12:36:48;;;;;;;20.67;17.27;;;;;;;14.17;62.87;98143.28;6228450;28;20323;-67
2022/11/14 12:40:36;;;;;;;20.93;16.37;;;;;;;14.52;60.30;98149.00;6230604;28;20603;-67
2022/11/14 12:44:28;;;;;;;19.67;16.53;;;;;;;15.97;55.43;98155.09;6229977;28;20639;-67
2022/11/14 12:48:20;;;;;;;20.00;16.67;;;;;;;17.66;51.26;98135.78;6226941;28;20217;-67
2022/11/14 12:51:49;;;;;;;21.03;17.17;;;;;;;18.19;48.30;98132.06;6228209;28;20236;-67
2022/11/14 12:55:25;;;;;;;20.17;16.77;;;;;;;18.93;46.75;98140.22;6228159;28;20223;-67
2022/11/14 12:58:57;;;;;;;20.80;15.63;;;;;;;17.81;48.56;98125.34;6226509;28;20235;-66
2022/11/14 13:02:27;;;;;;;20.03;16.83;;;;;;;15.33;55.73;98133.66;6228370;28;20330;-67
2022/11/14 13:05:56;;;;;;;20.40;17.40;;;;;;;14.23;59.38;98126.78;6228732;28;20314;-66
2022/11/14 13:09:33;;;;;;;22.27;18.73;;;;;;;12.84;64.52;98122.75;6225964;28;20703;-67
2022/11/14 13:24:15;;;;;;;24.43;19.30;;;;;;;10.96;73.09;98127.91;6228488;28;20604;-66
2022/11/14 13:27:36;;;;;;;22.80;19.30;;;;;;;10.86;73.80;98123.41;6226349;28;20232;-66
2022/11/14 13:31:35;;;;;;;25.33;19.80;;;;;;;10.76;74.29;98123.25;6228858;28;20277;-66
2022/11/14 13:35:03;;;;;;;23.03;18.70;;;;;;;10.65;75.01;98129.31;6226952;28;20288;-67
2022/11/14 13:38:42;;;;;;;24.30;19.43;;;;;;;10.48;75.99;98124.41;6228316;28;20335;-67
2022/11/14 13:42:31;;;;;;;25.60;19.07;;;;;;;10.46;76.18;98125.50;6226225;28;20225;-67
2022/11/14 13:46:09;;;;;;;26.00;19.70;;;;;;;10.29;76.63;98124.06;6229028;28;20239;-66
2022/11/14 13:49:48;;;;;;;25.20;19.53;;;;;;;10.15;77.52;98114.50;6229058;28;20246;-66
2022/11/14 13:53:18;;;;;;;25.07;19.17;;;;;;;10.07;77.87;98114.19;6229721;28;20219;-66
2022/11/14 13:56:53;;;;;;;27.43;20.07;;;;;;;9.88;79.04;98116.47;6227829;28;20237;-67
2022/11/14 14:00:15;;;;;;;25.00;19.37;;;;;;;9.84;79.54;98123.72;6232011;28;20589;-67
2022/11/14 14:04:01;;;;;;;27.47;19.40;;;;;;;9.80;79.72;98124.88;6210814;28;20232;-67
2022/11/14 14:07:50;;;;;;;21.30;17.17;;;;;;;9.73;79.89;98121.00;6208917;28;20302;-67
2022/11/14 14:11:29;;;;;;;22.30;17.83;;;;;;;9.57;80.36;98123.88;6209987;28;20231;-67
2022/11/14 14:15:18;;;;;;;22.93;18.97;;;;;;;9.36;81.79;98114.81;6210403;28;20271;-67
2022/11/14 14:18:51;;;;;;;23.90;19.43;;;;;;;9.25;82.12;98123.44;6211101;28;20357;-67
2022/11/14 14:22:24;;;;;;;22.30;17.77;;;;;;;9.13;82.72;98124.25;6208931;28;20242;-67
2022/11/14 14:26:43;;;;;;;26.13;18.40;;;;;;;8.98;83.06;98129.72;6208476;28;20738;-67
2022/11/14 14:30:11;;;;;;;23.37;18.30;;;;;;;8.82;83.59;98128.09;6130100;29;20277;-67
2022/11/14 14:33:47;;;;;;;20.73;17.40;;;;;;;8.69;84.18;98129.81;6127612;28;20225;-67
2022/11/14 14:37:20;;;;;;;21.33;17.37;;;;;;;8.56;85.10;98134.22;6126336;29;20331;-67
2022/11/14 14:40:41;;;;;;;20.40;17.30;;;;;;;8.40;84.72;98138.75;6124201;29;20231;-67
2022/11/14 14:44:02;;;;;;;22.87;18.70;;;;;;;8.25;85.37;98134.47;6126654;29;20239;-68
2022/11/14 14:47:42;;;;;;;23.20;18.67;;;;;;;8.07;85.89;98136.47;6126231;29;20635;-67
2022/11/14 14:51:04;;;;;;;30.40;22.73;;;;;;;7.83;87.59;98140.63;6127401;28;20273;-67
2022/11/14 14:54:28;;;;;;;27.73;20.77;;;;;;;7.73;88.09;98143.81;6132254;29;20256;-67
2022/11/14 14:57:49;;;;;;;24.20;18.93;;;;;;;7.70;87.99;98143.16;6126708;29;20240;-67
2022/11/14 15:01:13;;;;;;;22.97;17.97;;;;;;;7.65;88.32;98138.19;6135696;28;20628;-67
2022/11/14 15:04:37;;;;;;;21.07;16.30;;;;;;;7.58;88.51;98133.41;6230734;28;20311;-67
2022/11/14 15:07:59;;;;;;;29.10;21.40;;;;;;;7.33;88.31;98121.75;6235248;28;20228;-66
2022/11/14 15:11:20;;;;;;;31.10;22.53;;;;;;;7.16;89.35;98128.97;6235474;28;20608;-66
2022/11/14 15:14:40;;;;;;;26.90;20.13;;;;;;;6.93;89.58;98130.31;6230194;28;20269;-67
2022/11/14 15:18:06;;;;;;;28.27;20.17;;;;;;;6.72;89.85;98121.06;6231865;28;20833;-66
2022/11/14 15:21:28;;;;;;;24.47;18.23;;;;;;;6.54;89.70;98115.94;6233453;28;20299;-67
2022/11/14 15:25:10;;;;;;;29.97;21.67;;;;;;;6.28;89.95;98114.81;6233847;28;20236;-66
2022/11/14 15:28:31;;;;;;;31.90;22.60;;;;;;;6.10;90.41;98115.81;6241553;28;20235;-67
2022/11/14 15:31:59;;;;;;;34.77;23.30;;;;;;;5.93;90.77;98118.50;6232652;28;20240;-66
2022/11/14 15:35:30;;;;;;;62.57;35.33;;;;;;;5.72;91.27;98123.09;6232072;28;20235;-66
2022/11/14 15:39:04;;;;;;;74.40;40.30;;;;;;;5.64;91.87;98121.84;6228993;28;20244;-67
2022/11/14 15:42:30;;;;;;;85.13;45.10;;;;;;;5.61;91.69;98128.06;6230651;28;20226;-67
2022/11/14 15:45:51;;;;;;;158.33;73.57;;;;;;;5.56;91.96;98130.09;6230632;28;20246;-66
2022/11/14 15:49:25;;;;;;;227.07;101.60;;;;;;;5.45;92.08;98129.81;6231107;28;20238;-66
2022/11/14 15:52:48;;;;;;;158.77;76.03;;;;;;;5.32;92.54;98126.13;6231396;28;20234;-67
2022/11/14 15:56:12;;;;;;;220.27;97.97;;;;;;;5.20;93.29;98128.47;6232477;28;20228;-66
2022/11/14 15:59:33;;;;;;;209.53;95.80;;;;;;;5.12;93.05;98120.16;6229507;28;20232;-67